sensor_id;sensor_type;location;lat;lon;timestamp;pressure;altitude;pressure_sealevel;temperature;humidity
78337;BME280;67610;51.588;7.002;2023-03-30T00:00:57;99994.00;;;14.49;56.91
78337;BME280;67610;51.588;7.002;2023-03-30T00:03:23;99992.34;;;14.48;57.10
78337;BME280;67610;51.588;7.002;2023-03-30T00:05:52;99978.50;;;14.46;56.99
78337;BME280;67610;51.588;7.002;2023-03-30T00:08:21;99977.25;;;14.42;56.93
78337;BME280;67610;51.588;7.002;2023-03-30T00:10:52;99970.94;;;14.43;56.90
78337;BME280;67610;51.588;7.002;2023-03-30T00:13:20;99963.00;;;14.43;56.80
78337;BME280;67610;51.588;7.002;2023-03-30T00:15:45;99979.28;;;14.40;56.89
78337;BME280;67610;51.588;7.002;2023-03-30T00:18:11;99969.09;;;14.37;56.97
78337;BME280;67610;51.588;7.002;2023-03-30T00:20:36;99962.78;;;14.38;56.65
78337;BME280;67610;51.588;7.002;2023-03-30T00:23:07;99945.06;;;14.39;56.48
78337;BME280;67610;51.588;7.002;2023-03-30T00:25:32;99961.16;;;14.37;56.49
78337;BME280;67610;51.588;7.002;2023-03-30T00:27:58;99950.56;;;14.37;56.49
78337;BME280;67610;51.588;7.002;2023-03-30T00:30:23;99950.81;;;14.42;56.26
78337;BME280;67610;51.588;7.002;2023-03-30T00:32:48;99946.34;;;14.43;56.45
78337;BME280;67610;51.588;7.002;2023-03-30T00:35:14;99942.66;;;14.44;56.44
78337;BME280;67610;51.588;7.002;2023-03-30T00:37:39;99945.94;;;14.46;56.12
78337;BME280;67610;51.588;7.002;2023-03-30T00:40:08;99943.16;;;14.54;55.64
78337;BME280;67610;51.588;7.002;2023-03-30T00:42:38;99926.44;;;14.53;55.81
78337;BME280;67610;51.588;7.002;2023-03-30T00:50:29;99923.66;;;14.61;55.34
78337;BME280;67610;51.588;7.002;2023-03-30T00:53:00;99928.75;;;14.63;55.24
78337;BME280;67610;51.588;7.002;2023-03-30T00:55:29;99919.00;;;14.63;55.02
78337;BME280;67610;51.588;7.002;2023-03-30T00:57:56;99919.00;;;14.63;55.08
78337;BME280;67610;51.588;7.002;2023-03-30T01:00:22;99925.53;;;14.67;54.80
78337;BME280;67610;51.588;7.002;2023-03-30T01:02:55;99922.88;;;14.67;54.37
78337;BME280;67610;51.588;7.002;2023-03-30T01:05:23;99910.63;;;14.66;54.54
78337;BME280;67610;51.588;7.002;2023-03-30T01:07:49;99905.97;;;14.68;54.43
78337;BME280;67610;51.588;7.002;2023-03-30T01:10:16;99900.28;;;14.72;54.43
78337;BME280;67610;51.588;7.002;2023-03-30T01:12:42;99893.56;;;14.76;54.13
78337;BME280;67610;51.588;7.002;2023-03-30T01:15:09;99896.06;;;14.77;54.17
78337;BME280;67610;51.588;7.002;2023-03-30T01:17:47;99887.06;;;14.78;53.92
78337;BME280;67610;51.588;7.002;2023-03-30T01:31:48;99892.31;;;14.65;53.79
78337;BME280;67610;51.588;7.002;2023-03-30T01:34:45;99884.59;;;14.63;53.78
78337;BME280;67610;51.588;7.002;2023-03-30T01:37:50;99879.28;;;14.63;53.79
78337;BME280;67610;51.588;7.002;2023-03-30T01:40:28;99872.13;;;14.64;53.68
78337;BME280;67610;51.588;7.002;2023-03-30T01:43:25;99868.69;;;14.63;53.52
78337;BME280;67610;51.588;7.002;2023-03-30T01:45:58;99874.41;;;14.67;53.28
78337;BME280;67610;51.588;7.002;2023-03-30T01:48:40;99873.19;;;14.69;53.14
78337;BME280;67610;51.588;7.002;2023-03-30T01:51:13;99862.25;;;14.79;52.80
78337;BME280;67610;51.588;7.002;2023-03-30T01:53:50;99874.66;;;14.79;52.96
78337;BME280;67610;51.588;7.002;2023-03-30T01:56:25;99869.59;;;14.84;52.72
78337;BME280;67610;51.588;7.002;2023-03-30T01:58:55;99871.25;;;14.85;52.76
78337;BME280;67610;51.588;7.002;2023-03-30T02:01:24;99877.34;;;14.85;52.80
78337;BME280;67610;51.588;7.002;2023-03-30T02:03:55;99877.78;;;14.89;52.47
78337;BME280;67610;51.588;7.002;2023-03-30T02:06:31;99880.44;;;14.95;52.35
78337;BME280;67610;51.588;7.002;2023-03-30T02:09:14;99888.00;;;14.98;52.42
78337;BME280;67610;51.588;7.002;2023-03-30T02:11:44;99879.84;;;15.00;52.09
78337;BME280;67610;51.588;7.002;2023-03-30T02:14:14;99867.84;;;15.04;52.24
78337;BME280;67610;51.588;7.002;2023-03-30T02:16:53;99871.53;;;15.09;52.09
78337;BME280;67610;51.588;7.002;2023-03-30T02:19:20;99865.41;;;15.15;51.83
78337;BME280;67610;51.588;7.002;2023-03-30T02:21:46;99860.13;;;15.15;51.95
78337;BME280;67610;51.588;7.002;2023-03-30T02:24:26;99856.66;;;15.15;51.70
78337;BME280;67610;51.588;7.002;2023-03-30T02:26:53;99856.47;;;15.16;51.98
78337;BME280;67610;51.588;7.002;2023-03-30T02:29:19;99863.22;;;15.19;51.61
78337;BME280;67610;51.588;7.002;2023-03-30T02:31:48;99863.00;;;15.20;51.73
78337;BME280;67610;51.588;7.002;2023-03-30T02:48:15;99829.84;;;15.44;51.14
78337;BME280;67610;51.588;7.002;2023-03-30T02:54:00;99829.47;;;15.47;50.97
78337;BME280;67610;51.588;7.002;2023-03-30T02:59:08;99823.13;;;15.48;51.13
78337;BME280;67610;51.588;7.002;2023-03-30T03:04:14;99818.44;;;15.50;50.86
78337;BME280;67610;51.588;7.002;2023-03-30T03:06:41;99811.53;;;15.49;50.87
78337;BME280;67610;51.588;7.002;2023-03-30T03:09:08;99810.91;;;15.54;50.62
78337;BME280;67610;51.588;7.002;2023-03-30T03:11:35;99807.84;;;15.50;50.74
78337;BME280;67610;51.588;7.002;2023-03-30T03:14:00;99811.09;;;15.46;50.83
78337;BME280;67610;51.588;7.002;2023-03-30T03:16:26;99817.22;;;15.46;50.98
78337;BME280;67610;51.588;7.002;2023-03-30T03:18:51;99815.56;;;15.45;51.03
78337;BME280;67610;51.588;7.002;2023-03-30T03:21:17;99817.38;;;15.38;51.21
78337;BME280;67610;51.588;7.002;2023-03-30T03:23:42;99822.06;;;15.36;51.28
78337;BME280;67610;51.588;7.002;2023-03-30T03:26:08;99829.41;;;15.34;51.33
78337;BME280;67610;51.588;7.002;2023-03-30T03:28:34;99825.13;;;15.33;51.41
78337;BME280;67610;51.588;7.002;2023-03-30T03:31:00;99823.47;;;15.32;51.41
78337;BME280;67610;51.588;7.002;2023-03-30T03:33:26;99821.44;;;15.27;51.52
78337;BME280;67610;51.588;7.002;2023-03-30T03:35:53;99821.84;;;15.24;51.66
78337;BME280;67610;51.588;7.002;2023-03-30T03:38:25;99834.28;;;15.30;51.47
78337;BME280;67610;51.588;7.002;2023-03-30T03:40:52;99838.97;;;15.28;51.56
78337;BME280;67610;51.588;7.002;2023-03-30T03:43:19;99826.94;;;15.26;51.58
78337;BME280;67610;51.588;7.002;2023-03-30T03:45:45;99841.81;;;15.27;51.86
78337;BME280;67610;51.588;7.002;2023-03-30T03:48:12;99828.16;;;15.30;51.82
78337;BME280;67610;51.588;7.002;2023-03-30T03:50:37;99839.78;;;15.29;51.90
78337;BME280;67610;51.588;7.002;2023-03-30T03:53:03;99836.34;;;15.28;52.05
78337;BME280;67610;51.588;7.002;2023-03-30T03:55:28;99830.22;;;15.34;51.88
78337;BME280;67610;51.588;7.002;2023-03-30T03:57:55;99825.75;;;15.35;51.82
78337;BME280;67610;51.588;7.002;2023-03-30T04:00:20;99832.66;;;15.36;51.77
78337;BME280;67610;51.588;7.002;2023-03-30T04:02:47;99822.47;;;15.33;52.09
78337;BME280;67610;51.588;7.002;2023-03-30T04:05:13;99820.84;;;15.32;51.91
78337;BME280;67610;51.588;7.002;2023-03-30T04:07:38;99823.09;;;15.35;51.93
78337;BME280;67610;51.588;7.002;2023-03-30T04:10:04;99813.50;;;15.34;52.17
78337;BME280;67610;51.588;7.002;2023-03-30T04:12:30;99815.13;;;15.35;52.05
78337;BME280;67610;51.588;7.002;2023-03-30T04:14:55;99815.53;;;15.38;51.91
78337;BME280;67610;51.588;7.002;2023-03-30T04:17:22;99809.84;;;15.35;52.19
78337;BME280;67610;51.588;7.002;2023-03-30T04:19:51;99805.75;;;15.39;52.09
78337;BME280;67610;51.588;7.002;2023-03-30T04:22:19;99800.47;;;15.39;52.04
78337;BME280;67610;51.588;7.002;2023-03-30T04:24:50;99803.50;;;15.43;51.85
78337;BME280;67610;51.588;7.002;2023-03-30T04:27:15;99803.34;;;15.44;52.07
78337;BME280;67610;51.588;7.002;2023-03-30T04:29:41;99800.84;;;15.43;52.17
78337;BME280;67610;51.588;7.002;2023-03-30T04:32:09;99795.41;;;15.44;52.04
78337;BME280;67610;51.588;7.002;2023-03-30T04:34:37;99796.38;;;15.43;52.17
78337;BME280;67610;51.588;7.002;2023-03-30T04:37:08;99798.22;;;15.43;52.25
78337;BME280;67610;51.588;7.002;2023-03-30T04:39:34;99798.88;;;15.45;52.02
78337;BME280;67610;51.588;7.002;2023-03-30T04:42:00;99790.31;;;15.49;51.94
78337;BME280;67610;51.588;7.002;2023-03-30T04:44:28;99788.06;;;15.46;52.17
78337;BME280;67610;51.588;7.002;2023-03-30T04:46:54;99792.34;;;15.47;52.00
78337;BME280;67610;51.588;7.002;2023-03-30T04:49:20;99784.59;;;15.46;52.11
78337;BME280;67610;51.588;7.002;2023-03-30T04:51:48;99795.00;;;15.47;52.08
78337;BME280;67610;51.588;7.002;2023-03-30T04:54:14;99787.47;;;15.44;51.91
78337;BME280;67610;51.588;7.002;2023-03-30T04:56:39;99790.94;;;15.51;52.00
78337;BME280;67610;51.588;7.002;2023-03-30T04:59:06;99781.16;;;15.52;51.79
78337;BME280;67610;51.588;7.002;2023-03-30T05:01:31;99785.81;;;15.50;52.15
78337;BME280;67610;51.588;7.002;2023-03-30T05:03:57;99783.16;;;15.50;52.08
78337;BME280;67610;51.588;7.002;2023-03-30T05:06:24;99784.59;;;15.52;51.99
78337;BME280;67610;51.588;7.002;2023-03-30T05:08:52;99783.97;;;15.50;52.05
78337;BME280;67610;51.588;7.002;2023-03-30T05:11:17;99791.53;;;15.53;51.89
78337;BME280;67610;51.588;7.002;2023-03-30T05:13:44;99786.44;;;15.52;52.00
78337;BME280;67610;51.588;7.002;2023-03-30T05:16:11;99786.22;;;15.53;51.80
78337;BME280;67610;51.588;7.002;2023-03-30T05:18:36;99783.97;;;15.50;51.64
78337;BME280;67610;51.588;7.002;2023-03-30T05:21:03;99783.78;;;15.52;52.05
78337;BME280;67610;51.588;7.002;2023-03-30T05:23:28;99777.66;;;15.51;51.88
78337;BME280;67610;51.588;7.002;2023-03-30T05:25:54;99770.72;;;15.50;51.96
78337;BME280;67610;51.588;7.002;2023-03-30T05:28:20;99778.47;;;15.45;52.14
78337;BME280;67610;51.588;7.002;2023-03-30T05:30:52;99768.25;;;15.42;51.98
78337;BME280;67610;51.588;7.002;2023-03-30T05:33:18;99770.50;;;15.38;52.35
78337;BME280;67610;51.588;7.002;2023-03-30T05:35:45;99768.66;;;15.32;52.37
78337;BME280;67610;51.588;7.002;2023-03-30T05:38:11;99776.78;;;15.31;52.53
78337;BME280;67610;51.588;7.002;2023-03-30T05:40:36;99784.56;;;15.26;52.66
78337;BME280;67610;51.588;7.002;2023-03-30T05:43:02;99787.81;;;15.28;52.79
78337;BME280;67610;51.588;7.002;2023-03-30T05:45:27;99779.66;;;15.36;52.61
78337;BME280;67610;51.588;7.002;2023-03-30T05:47:53;99772.53;;;15.36;53.03
78337;BME280;67610;51.588;7.002;2023-03-30T05:50:19;99783.13;;;15.36;52.90
78337;BME280;67610;51.588;7.002;2023-03-30T05:52:44;99779.88;;;15.41;52.65
78337;BME280;67610;51.588;7.002;2023-03-30T05:55:10;99791.09;;;15.43;52.73
78337;BME280;67610;51.588;7.002;2023-03-30T05:57:37;99794.56;;;15.44;52.75
78337;BME280;67610;51.588;7.002;2023-03-30T06:00:04;99783.94;;;15.37;52.99
78337;BME280;67610;51.588;7.002;2023-03-30T06:02:31;99794.75;;;15.42;53.02
78337;BME280;67610;51.588;7.002;2023-03-30T06:04:56;99795.41;;;15.44;53.10
78337;BME280;67610;51.588;7.002;2023-03-30T06:07:22;99784.59;;;15.46;53.09
78337;BME280;67610;51.588;7.002;2023-03-30T06:09:48;99793.97;;;15.48;53.28
78337;BME280;67610;51.588;7.002;2023-03-30T06:12:14;99795.63;;;15.56;53.04
78337;BME280;67610;51.588;7.002;2023-03-30T06:14:40;99797.25;;;15.63;52.95
78337;BME280;67610;51.588;7.002;2023-03-30T06:17:05;99801.13;;;15.67;53.04
78337;BME280;67610;51.588;7.002;2023-03-30T06:19:31;99806.63;;;15.72;53.26
78337;BME280;67610;51.588;7.002;2023-03-30T06:21:57;99807.63;;;15.78;52.82
78337;BME280;67610;51.588;7.002;2023-03-30T06:24:22;99809.47;;;15.77;52.92
78337;BME280;67610;51.588;7.002;2023-03-30T06:26:48;99808.22;;;15.80;53.12
78337;BME280;67610;51.588;7.002;2023-03-30T06:29:13;99810.91;;;15.86;52.59
78337;BME280;67610;51.588;7.002;2023-03-30T06:31:40;99811.31;;;15.83;52.76
78337;BME280;67610;51.588;7.002;2023-03-30T06:34:06;99804.97;;;15.84;52.63
78337;BME280;67610;51.588;7.002;2023-03-30T06:36:32;99807.63;;;15.91;52.52
78337;BME280;67610;51.588;7.002;2023-03-30T06:38:57;99807.41;;;15.99;52.18
78337;BME280;67610;51.588;7.002;2023-03-30T06:41:22;99806.00;;;15.90;52.46
78337;BME280;67610;51.588;7.002;2023-03-30T06:43:48;99812.31;;;15.89;52.38
78337;BME280;67610;51.588;7.002;2023-03-30T06:46:13;99807.00;;;15.89;52.53
78337;BME280;67610;51.588;7.002;2023-03-30T06:48:39;99806.22;;;15.88;52.65
78337;BME280;67610;51.588;7.002;2023-03-30T06:51:06;99808.44;;;15.91;52.53
78337;BME280;67610;51.588;7.002;2023-03-30T06:53:31;99804.75;;;15.92;52.58
78337;BME280;67610;51.588;7.002;2023-03-30T06:55:57;99806.41;;;16.00;52.26
78337;BME280;67610;51.588;7.002;2023-03-30T06:58:24;99812.91;;;16.04;52.04
78337;BME280;67610;51.588;7.002;2023-03-30T07:00:51;99816.38;;;16.04;51.89
78337;BME280;67610;51.588;7.002;2023-03-30T07:03:17;99809.03;;;16.06;51.93
78337;BME280;67610;51.588;7.002;2023-03-30T07:05:46;99807.38;;;16.05;51.91
78337;BME280;67610;51.588;7.002;2023-03-30T07:08:12;99815.94;;;16.07;51.99
78337;BME280;67610;51.588;7.002;2023-03-30T07:10:38;99809.03;;;16.06;51.71
78337;BME280;67610;51.588;7.002;2023-03-30T07:13:04;99815.16;;;16.07;51.72
78337;BME280;67610;51.588;7.002;2023-03-30T07:15:30;99810.84;;;16.13;51.66
78337;BME280;67610;51.588;7.002;2023-03-30T07:17:55;99812.06;;;16.17;51.37
78337;BME280;67610;51.588;7.002;2023-03-30T07:20:21;99813.09;;;16.16;51.29
78337;BME280;67610;51.588;7.002;2023-03-30T07:22:46;99814.72;;;16.17;51.53
78337;BME280;67610;51.588;7.002;2023-03-30T07:25:12;99808.19;;;16.26;51.32
78337;BME280;67610;51.588;7.002;2023-03-30T07:27:37;99810.41;;;16.29;51.40
78337;BME280;67610;51.588;7.002;2023-03-30T07:30:04;99805.88;;;16.36;51.36
78337;BME280;67610;51.588;7.002;2023-03-30T07:32:30;99818.34;;;16.35;51.49
78337;BME280;67610;51.588;7.002;2023-03-30T07:34:56;99821.81;;;16.36;51.89
78337;BME280;67610;51.588;7.002;2023-03-30T07:37:23;99821.63;;;16.37;51.89
78337;BME280;67610;51.588;7.002;2023-03-30T07:39:49;99824.66;;;16.41;51.63
78337;BME280;67610;51.588;7.002;2023-03-30T07:42:14;99843.25;;;16.41;52.38
78337;BME280;67610;51.588;7.002;2023-03-30T07:44:40;99840.41;;;16.29;54.85
78337;BME280;67610;51.588;7.002;2023-03-30T07:47:06;99839.63;;;16.16;55.35
78337;BME280;67610;51.588;7.002;2023-03-30T07:49:32;99836.78;;;15.97;56.02
78337;BME280;67610;51.588;7.002;2023-03-30T07:51:57;99850.47;;;15.88;56.18
78337;BME280;67610;51.588;7.002;2023-03-30T07:54:23;99867.00;;;15.90;56.44
78337;BME280;67610;51.588;7.002;2023-03-30T07:56:48;99863.72;;;15.81;57.19
78337;BME280;67610;51.588;7.002;2023-03-30T07:59:21;99873.91;;;15.65;58.14
78337;BME280;67610;51.588;7.002;2023-03-30T08:01:47;99878.78;;;15.48;58.72
78337;BME280;67610;51.588;7.002;2023-03-30T08:04:15;99889.13;;;15.36;59.60
78337;BME280;67610;51.588;7.002;2023-03-30T08:06:41;99885.63;;;15.23;59.41
78337;BME280;67610;51.588;7.002;2023-03-30T08:09:06;99892.72;;;15.16;60.18
78337;BME280;67610;51.588;7.002;2023-03-30T08:11:33;99899.84;;;15.09;60.28
78337;BME280;67610;51.588;7.002;2023-03-30T08:14:00;99903.09;;;15.11;60.41
78337;BME280;67610;51.588;7.002;2023-03-30T08:16:26;99903.31;;;15.09;60.65
78337;BME280;67610;51.588;7.002;2023-03-30T08:18:51;99903.50;;;15.08;62.04
78337;BME280;67610;51.588;7.002;2023-03-30T08:21:19;99908.75;;;14.95;61.77
78337;BME280;67610;51.588;7.002;2023-03-30T08:23:46;99905.66;;;14.85;62.36
78337;BME280;67610;51.588;7.002;2023-03-30T08:26:11;99911.97;;;14.84;62.18
78337;BME280;67610;51.588;7.002;2023-03-30T08:28:36;99901.38;;;14.84;62.83
78337;BME280;67610;51.588;7.002;2023-03-30T08:31:06;99904.25;;;14.89;63.44
78337;BME280;67610;51.588;7.002;2023-03-30T08:33:32;99911.16;;;14.90;62.80
78337;BME280;67610;51.588;7.002;2023-03-30T08:35:59;99912.88;;;15.10;62.74
78337;BME280;67610;51.588;7.002;2023-03-30T08:38:27;99919.69;;;15.26;62.72
78337;BME280;67610;51.588;7.002;2023-03-30T08:40:52;99908.50;;;15.37;62.42
78337;BME280;67610;51.588;7.002;2023-03-30T08:46:03;99915.13;;;15.74;60.89
78337;BME280;67610;51.588;7.002;2023-03-30T08:48:31;99904.31;;;15.82;60.36
78337;BME280;67610;51.588;7.002;2023-03-30T08:51:04;99909.41;;;15.83;59.73
78337;BME280;67610;51.588;7.002;2023-03-30T08:53:33;99908.19;;;15.79;59.02
78337;BME280;67610;51.588;7.002;2023-03-30T08:56:30;99901.47;;;15.77;57.44
78337;BME280;67610;51.588;7.002;2023-03-30T09:01:44;99911.63;;;16.71;55.99
78337;BME280;67610;51.588;7.002;2023-03-30T09:09:44;99897.28;;;18.60;49.57
78337;BME280;67610;51.588;7.002;2023-03-30T09:12:34;99892.03;;;19.08;48.91
78337;BME280;67610;51.588;7.002;2023-03-30T09:15:40;99908.72;;;19.33;46.89
78337;BME280;67610;51.588;7.002;2023-03-30T09:18:24;99898.84;;;19.52;44.75
78337;BME280;67610;51.588;7.002;2023-03-30T09:20:54;99912.41;;;19.50;44.13
78337;BME280;67610;51.588;7.002;2023-03-30T09:23:20;99903.44;;;19.74;44.91
78337;BME280;67610;51.588;7.002;2023-03-30T09:28:54;99916.28;;;20.18;42.32
78337;BME280;67610;51.588;7.002;2023-03-30T09:31:39;99907.59;;;20.46;41.70
78337;BME280;67610;51.588;7.002;2023-03-30T09:34:18;99917.19;;;20.82;41.27
78337;BME280;67610;51.588;7.002;2023-03-30T09:37:08;99911.91;;;21.10;39.49
78337;BME280;67610;51.588;7.002;2023-03-30T09:39:35;99914.22;;;21.18;39.81
78337;BME280;67610;51.588;7.002;2023-03-30T09:42:25;99914.44;;;21.17;39.15
78337;BME280;67610;51.588;7.002;2023-03-30T09:45:34;99919.63;;;21.07;37.79
78337;BME280;67610;51.588;7.002;2023-03-30T09:47:40;99918.47;;;20.79;38.40
78337;BME280;67610;51.588;7.002;2023-03-30T09:50:15;99926.19;;;20.53;38.88
78337;BME280;67610;51.588;7.002;2023-03-30T09:52:58;99944.19;;;20.34;39.50
78337;BME280;67610;51.588;7.002;2023-03-30T09:58:09;99924.88;;;19.68;39.95
78337;BME280;67610;51.588;7.002;2023-03-30T10:00:35;99929.50;;;19.61;40.01
78337;BME280;67610;51.588;7.002;2023-03-30T10:03:04;99936.09;;;19.58;40.36
78337;BME280;67610;51.588;7.002;2023-03-30T10:05:32;99936.72;;;19.72;40.27
78337;BME280;67610;51.588;7.002;2023-03-30T10:08:16;99930.56;;;19.71;40.02
78337;BME280;67610;51.588;7.002;2023-03-30T10:10:43;99931.25;;;19.67;40.00
78337;BME280;67610;51.588;7.002;2023-03-30T10:13:14;99939.53;;;19.47;39.64
78337;BME280;67610;51.588;7.002;2023-03-30T10:15:42;99937.31;;;19.26;40.35
78337;BME280;67610;51.588;7.002;2023-03-30T10:23:40;99954.97;;;18.48;42.58
78337;BME280;67610;51.588;7.002;2023-03-30T10:26:12;99960.72;;;18.20;42.68
78337;BME280;67610;51.588;7.002;2023-03-30T10:28:53;99968.44;;;17.72;43.78
78337;BME280;67610;51.588;7.002;2023-03-30T10:31:20;99968.72;;;17.58;44.53
78337;BME280;67610;51.588;7.002;2023-03-30T10:33:47;99963.38;;;17.13;45.78
78337;BME280;67610;51.588;7.002;2023-03-30T10:36:18;99970.59;;;16.93;46.52
78337;BME280;67610;51.588;7.002;2023-03-30T10:38:44;99968.50;;;17.08;46.25
78337;BME280;67610;51.588;7.002;2023-03-30T10:41:17;99967.31;;;17.04;46.69
78337;BME280;67610;51.588;7.002;2023-03-30T10:43:45;99968.34;;;16.97;46.98
78337;BME280;67610;51.588;7.002;2023-03-30T10:46:17;99972.25;;;16.88;48.20
78337;BME280;67610;51.588;7.002;2023-03-30T10:57:01;99971.25;;;16.69;48.18
78337;BME280;67610;51.588;7.002;2023-03-30T11:04:46;99968.53;;;16.95;46.83
78337;BME280;67610;51.588;7.002;2023-03-30T11:09:57;99968.97;;;16.92;48.57
78337;BME280;67610;51.588;7.002;2023-03-30T11:12:34;99978.50;;;17.13;47.96
78337;BME280;67610;51.588;7.002;2023-03-30T11:15:21;99983.19;;;17.17;46.79
78337;BME280;67610;51.588;7.002;2023-03-30T11:17:59;99976.72;;;16.94;47.10
78337;BME280;67610;51.588;7.002;2023-03-30T11:20:33;99986.31;;;17.01;47.39
78337;BME280;67610;51.588;7.002;2023-03-30T11:23:15;99977.56;;;17.45;46.02
78337;BME280;67610;51.588;7.002;2023-03-30T11:30:55;99970.81;;;17.87;45.93
78337;BME280;67610;51.588;7.002;2023-03-30T11:33:42;99957.19;;;18.01;45.28
78337;BME280;67610;51.588;7.002;2023-03-30T11:36:20;99966.25;;;18.19;45.42
78337;BME280;67610;51.588;7.002;2023-03-30T11:38:56;99976.59;;;18.58;45.44
78337;BME280;67610;51.588;7.002;2023-03-30T11:41:33;99968.81;;;18.99;44.13
78337;BME280;67610;51.588;7.002;2023-03-30T11:44:03;99964.66;;;19.21;43.02
78337;BME280;67610;51.588;7.002;2023-03-30T11:51:44;99969.19;;;19.69;42.47
78337;BME280;67610;51.588;7.002;2023-03-30T12:02:28;99965.59;;;19.45;41.03
78337;BME280;67610;51.588;7.002;2023-03-30T12:05:10;99962.06;;;19.51;40.50
78337;BME280;67610;51.588;7.002;2023-03-30T12:08:04;99958.25;;;19.59;39.69
78337;BME280;67610;51.588;7.002;2023-03-30T12:10:39;99957.22;;;19.60;39.66
78337;BME280;67610;51.588;7.002;2023-03-30T12:13:10;99941.97;;;19.78;38.83
78337;BME280;67610;51.588;7.002;2023-03-30T12:16:09;99948.28;;;19.95;38.48
78337;BME280;67610;51.588;7.002;2023-03-30T12:18:41;99955.38;;;20.01;37.90
78337;BME280;67610;51.588;7.002;2023-03-30T12:21:32;99952.59;;;20.08;37.62
78337;BME280;67610;51.588;7.002;2023-03-30T12:26:29;99943.59;;;19.79;38.43
78337;BME280;67610;51.588;7.002;2023-03-30T12:32:19;99939.91;;;19.92;38.03
78337;BME280;67610;51.588;7.002;2023-03-30T12:34:45;99936.19;;;19.93;38.13
78337;BME280;67610;51.588;7.002;2023-03-30T12:39:54;99960.59;;;19.67;38.80
78337;BME280;67610;51.588;7.002;2023-03-30T12:42:30;99955.34;;;19.60;39.08
78337;BME280;67610;51.588;7.002;2023-03-30T12:48:46;99949.47;;;19.22;39.64
78337;BME280;67610;51.588;7.002;2023-03-30T12:51:15;99948.09;;;19.19;39.77
78337;BME280;67610;51.588;7.002;2023-03-30T12:56:41;100007.66;;;18.70;45.14
78337;BME280;67610;51.588;7.002;2023-03-30T13:04:28;100010.91;;;17.34;51.06
78337;BME280;67610;51.588;7.002;2023-03-30T13:07:05;100003.41;;;17.18;53.07
78337;BME280;67610;51.588;7.002;2023-03-30T13:12:40;99991.22;;;17.04;55.98
78337;BME280;67610;51.588;7.002;2023-03-30T13:17:54;99995.91;;;17.02;57.00
78337;BME280;67610;51.588;7.002;2023-03-30T13:20:32;99995.09;;;17.02;57.07
78337;BME280;67610;51.588;7.002;2023-03-30T13:28:35;100002.00;;;17.22;56.82
78337;BME280;67610;51.588;7.002;2023-03-30T13:31:29;99984.19;;;17.16;55.20
78337;BME280;67610;51.588;7.002;2023-03-30T13:47:53;99972.94;;;17.27;53.98
78337;BME280;67610;51.588;7.002;2023-03-30T13:50:24;99986.16;;;17.40;52.80
78337;BME280;67610;51.588;7.002;2023-03-30T13:52:53;99964.94;;;17.34;53.07
78337;BME280;67610;51.588;7.002;2023-03-30T13:55:26;99971.63;;;17.43;52.63
78337;BME280;67610;51.588;7.002;2023-03-30T13:58:02;99978.56;;;17.51;52.62
78337;BME280;67610;51.588;7.002;2023-03-30T14:05:52;99984.66;;;17.58;52.49
78337;BME280;67610;51.588;7.002;2023-03-30T14:08:19;99976.88;;;17.63;51.99
78337;BME280;67610;51.588;7.002;2023-03-30T14:10:49;99980.75;;;17.67;52.00
78337;BME280;67610;51.588;7.002;2023-03-30T14:13:15;99983.41;;;17.67;52.00
78337;BME280;67610;51.588;7.002;2023-03-30T14:15:41;99985.06;;;17.61;52.51
78337;BME280;67610;51.588;7.002;2023-03-30T14:18:11;99978.16;;;17.54;53.66
78337;BME280;67610;51.588;7.002;2023-03-30T14:20:47;99973.00;;;17.59;53.99
78337;BME280;67610;51.588;7.002;2023-03-30T14:23:18;99971.38;;;17.58;54.60
78337;BME280;67610;51.588;7.002;2023-03-30T14:25:45;99965.44;;;17.62;54.70
78337;BME280;67610;51.588;7.002;2023-03-30T14:28:18;99960.50;;;17.66;54.88
78337;BME280;67610;51.588;7.002;2023-03-30T14:30:56;99968.66;;;17.71;54.51
78337;BME280;67610;51.588;7.002;2023-03-30T14:33:23;99961.69;;;17.70;53.90
78337;BME280;67610;51.588;7.002;2023-03-30T14:35:54;99965.19;;;17.70;53.83
78337;BME280;67610;51.588;7.002;2023-03-30T14:40:55;99958.63;;;17.73;52.49
78337;BME280;67610;51.588;7.002;2023-03-30T14:43:23;99950.22;;;17.69;51.97
78337;BME280;67610;51.588;7.002;2023-03-30T14:45:53;99951.06;;;17.70;51.68
78337;BME280;67610;51.588;7.002;2023-03-30T14:48:28;99959.63;;;17.72;50.89
78337;BME280;67610;51.588;7.002;2023-03-30T14:50:55;99953.25;;;17.79;49.80
78337;BME280;67610;51.588;7.002;2023-03-30T14:53:28;99949.09;;;17.90;50.30
78337;BME280;67610;51.588;7.002;2023-03-30T14:55:55;99949.66;;;17.98;50.40
78337;BME280;67610;51.588;7.002;2023-03-30T14:58:23;99946.00;;;17.93;48.84
78337;BME280;67610;51.588;7.002;2023-03-30T15:00:54;99947.63;;;17.94;48.39
78337;BME280;67610;51.588;7.002;2023-03-30T15:03:22;99945.22;;;17.86;47.16
78337;BME280;67610;51.588;7.002;2023-03-30T15:05:48;99951.59;;;17.85;47.00
78337;BME280;67610;51.588;7.002;2023-03-30T15:08:24;99944.50;;;17.72;46.35
78337;BME280;67610;51.588;7.002;2023-03-30T15:10:57;99937.19;;;17.61;46.88
78337;BME280;67610;51.588;7.002;2023-03-30T15:13:50;99941.34;;;17.51;46.33
78337;BME280;67610;51.588;7.002;2023-03-30T15:16:19;99945.00;;;17.50;46.87
78337;BME280;67610;51.588;7.002;2023-03-30T15:18:46;99952.44;;;17.41;46.98
78337;BME280;67610;51.588;7.002;2023-03-30T15:21:12;99942.06;;;17.26;46.78
78337;BME280;67610;51.588;7.002;2023-03-30T15:23:41;99951.50;;;17.22;47.54
78337;BME280;67610;51.588;7.002;2023-03-30T15:26:08;99965.56;;;17.23;47.72
78337;BME280;67610;51.588;7.002;2023-03-30T15:28:43;99965.19;;;17.19;48.47
78337;BME280;67610;51.588;7.002;2023-03-30T15:31:12;99974.59;;;17.22;48.27
78337;BME280;67610;51.588;7.002;2023-03-30T15:33:42;99997.94;;;17.13;49.92
78337;BME280;67610;51.588;7.002;2023-03-30T15:36:17;99991.19;;;17.11;50.47
78337;BME280;67610;51.588;7.002;2023-03-30T15:38:47;100014.31;;;17.04;51.57
78337;BME280;67610;51.588;7.002;2023-03-30T15:41:13;100013.13;;;16.80;53.65
78337;BME280;67610;51.588;7.002;2023-03-30T15:43:56;100000.88;;;16.66;54.36